Aérodrome :
LOGIN :

S'inscrire | Disclaimer

   EN    FR    IT 

 










Légende :    VFR   VFR Marginal   IFR   IFR Intensif   IFR Très Intensif
Visi : 
Plafond : 
>= 8 km
>= 3000ft
5 à 8 km
1000 à 3000 ft
1500m à 5 km
500 à 1000 ft
800 à 1500m
200 à 500 ft
< 800m
< 200 ft
Symboles :   Orages  Brouillard  Fortes neiges  Fortes précipitations  Vent > 20 kt
SIGMETs :   Divers  Orages  Givrage  Turbulence  Onde Orograph.  Cendres Volcan.






- Altitude de l'aérodrome : 17 ft
- Code IATA : GRQ


EHGG - Groningen Eelde

DERNIER METAR :
  • 240055Z AUTO 17005KT 1900 BR OVC002 02/02 Q1025

METARs EXPIRÉS :
  • 240025Z AUTO 17004KT 150V210 1800 BR BKN001 OVC002 02/02 Q1025
  • 232355Z AUTO 18004KT 1700 BR BKN002 OVC003 02/02 Q1026
  • 232325Z AUTO 17003KT 2000 BR OVC003 02/02 Q1026
  • 232255Z AUTO 22005KT 180V250 3200 BR BKN003 OVC004 02/02 Q1026

TAF TAF EHGG
Valide du 24 à 00h jusqu'au 25 à 06h UTC


232317Z 2400/2506 21004KT 2000 BR OVC004
PROB30 2400/2409 0400 FG VV001
BECMG 2409/2412 6000 NSW BKN006
BECMG 2412/2414 -DZ BKN004
PROB40
TEMPO 2414/2506 2500 DZ BKN002



MET'MAP, la Météo Aéronautique d'un coup d'oeil ! - Copyright ORBIFLY Décembre 2007 - Disclaimer

ORBIFLY MET'MAP TEAM :

Programmation & Développement : Alexandra Zaïnal
Sur une idée originale de : Baudouin d'Aumeries
Assistance à la programmation : Marc-Olivier Méhu
Soutien technique & logistique : Manuel Goepfert

Contact : metmap@orbifly.com




SOURCES & CREDITS :

   NOAA